createdAt,value
2019-06-10T00:00:41.933Z,1.57
2019-06-10T00:03:11.799Z,1.37
2019-06-10T00:05:41.459Z,1.52
2019-06-10T00:08:11.975Z,1.45
2019-06-10T00:10:42.268Z,2.00
2019-06-10T00:13:11.921Z,1.25
2019-06-10T00:15:41.090Z,1.35
2019-06-10T00:18:33.330Z,1.70
2019-06-10T00:20:40.845Z,1.40
2019-06-10T00:23:12.181Z,1.10
2019-06-10T00:25:41.288Z,1.65
2019-06-10T00:28:12.154Z,1.47
2019-06-10T00:30:41.129Z,1.52
2019-06-10T00:33:12.489Z,1.52
2019-06-10T00:35:41.237Z,1.75
2019-06-10T00:38:13.768Z,1.80
2019-06-10T00:40:41.419Z,1.52
2019-06-10T00:43:13.289Z,1.60
2019-06-10T00:45:41.048Z,1.98
2019-06-10T00:48:21.402Z,1.80
2019-06-10T00:50:41.397Z,1.98
2019-06-10T00:53:14.114Z,1.95
2019-06-10T00:55:41.560Z,1.82
2019-06-10T00:58:13.683Z,1.65
2019-06-10T01:00:41.460Z,1.72
2019-06-10T01:03:14.628Z,1.60
2019-06-10T01:05:42.090Z,1.60
2019-06-10T01:08:13.891Z,1.70
2019-06-10T01:10:43.877Z,1.60
2019-06-10T01:13:12.289Z,1.98
2019-06-10T01:15:47.547Z,1.60
2019-06-10T01:18:32.019Z,2.00
2019-06-10T01:20:46.124Z,1.92
2019-06-10T01:23:15.712Z,1.80
2019-06-10T01:25:44.318Z,1.90
2019-06-10T01:28:16.493Z,1.80
2019-06-10T01:30:42.965Z,2.12
2019-06-10T01:33:14.378Z,1.90
2019-06-10T01:35:41.847Z,1.90
2019-06-10T01:38:12.848Z,2.33
2019-06-10T01:40:42.165Z,2.10
2019-06-10T01:43:13.382Z,1.80
2019-06-10T01:45:41.832Z,1.90
2019-06-10T01:48:12.103Z,1.80
2019-06-10T01:50:40.731Z,1.80
2019-06-10T01:53:10.138Z,1.67
2019-06-10T01:55:41.487Z,2.05
2019-06-10T01:58:10.700Z,2.12
2019-06-10T02:01:01.443Z,1.70
2019-06-10T02:03:31.468Z,1.80
2019-06-10T02:06:05.581Z,2.12
2019-06-10T02:08:34.022Z,2.00
2019-06-10T02:11:02.457Z,1.47
2019-06-10T02:13:33.221Z,1.95
2019-06-10T02:16:03.349Z,1.87
2019-06-10T02:18:32.393Z,1.85
2019-06-10T02:21:01.461Z,1.90
2019-06-10T02:23:31.348Z,1.80
2019-06-10T02:26:01.512Z,2.00
2019-06-10T02:28:31.664Z,1.85
2019-06-10T02:31:03.079Z,1.90
2019-06-10T02:33:36.186Z,2.08
2019-06-10T02:36:04.858Z,1.98
2019-06-10T02:38:39.071Z,1.90
2019-06-10T02:41:04.801Z,2.05
2019-06-10T02:43:37.505Z,1.95
2019-06-10T02:46:05.918Z,1.62
2019-06-10T02:48:35.450Z,1.85
2019-06-10T02:51:08.050Z,1.98
2019-06-10T02:53:37.534Z,1.90
2019-06-10T02:56:09.548Z,1.90
2019-06-10T02:58:39.834Z,1.85
2019-06-10T03:01:08.335Z,2.08
2019-06-10T03:03:43.793Z,2.40
2019-06-10T03:06:08.833Z,2.02
2019-06-10T03:08:37.198Z,2.10
2019-06-10T03:11:08.633Z,2.15
2019-06-10T03:13:37.048Z,2.10
2019-06-10T03:16:16.358Z,2.10
2019-06-10T03:18:44.769Z,2.17
2019-06-10T03:21:13.194Z,2.10
2019-06-10T03:23:42.675Z,2.35
2019-06-10T03:26:12.418Z,2.05
2019-06-10T03:28:42.799Z,2.02
2019-06-10T03:31:15.181Z,2.08
2019-06-10T03:33:46.324Z,2.58
2019-06-10T03:36:12.419Z,2.40
2019-06-10T03:38:43.213Z,2.22
2019-06-10T03:41:12.418Z,2.55
2019-06-10T03:43:43.025Z,1.52
2019-06-10T03:46:13.563Z,2.55
2019-06-10T03:48:43.374Z,2.20
2019-06-10T03:51:12.602Z,2.75
2019-06-10T03:53:42.707Z,2.17
2019-06-10T03:56:12.908Z,2.50
2019-06-10T03:58:43.129Z,2.30
2019-06-10T04:01:12.398Z,2.35
2019-06-10T04:03:42.792Z,2.33
2019-06-10T04:06:13.015Z,2.30
2019-06-10T04:08:43.370Z,2.25
2019-06-10T04:11:12.267Z,2.60
2019-06-10T04:13:43.056Z,2.70
2019-06-10T04:16:13.133Z,2.22
2019-06-10T04:18:43.030Z,2.50
2019-06-10T04:21:12.971Z,2.10
2019-06-10T04:23:42.345Z,2.33
2019-06-10T04:26:12.773Z,2.95
2019-06-10T04:28:42.934Z,3.50
2019-06-10T04:31:14.552Z,2.27
2019-06-10T04:33:42.967Z,2.65
2019-06-10T04:36:13.419Z,2.50
2019-06-10T04:38:43.159Z,2.35
2019-06-10T04:41:12.636Z,2.95
2019-06-10T04:43:43.230Z,2.70
2019-06-10T04:46:12.712Z,2.55
2019-06-10T04:48:42.733Z,2.98
2019-06-10T04:51:12.976Z,2.65
2019-06-10T04:53:43.493Z,3.05
2019-06-10T04:56:12.342Z,2.60
2019-06-10T04:58:43.315Z,2.70
2019-06-10T05:01:12.890Z,2.62
2019-06-10T05:03:43.349Z,3.02
2019-06-10T05:06:12.401Z,2.20
2019-06-10T05:08:42.536Z,3.12
2019-06-10T05:11:13.772Z,3.08
2019-06-10T05:13:42.971Z,3.05
2019-06-10T05:16:12.530Z,2.60
2019-06-10T05:18:42.487Z,3.25
2019-06-10T05:21:13.052Z,2.50
2019-06-10T05:23:42.937Z,2.80
2019-06-10T05:26:13.394Z,3.10
2019-06-10T05:28:43.283Z,2.98
2019-06-10T05:31:13.195Z,3.15
2019-06-10T05:33:42.659Z,2.70
2019-06-10T05:36:13.123Z,3.10
2019-06-10T05:38:43.594Z,2.95
2019-06-10T05:41:13.428Z,3.30
2019-06-10T05:43:43.078Z,3.47
2019-06-10T05:46:13.396Z,3.00
2019-06-10T05:48:43.834Z,3.35
2019-06-10T05:51:12.450Z,3.30
2019-06-10T05:53:42.677Z,3.45
2019-06-10T05:56:12.873Z,3.77
2019-06-10T05:58:43.565Z,3.52
2019-06-10T06:01:13.160Z,3.98
2019-06-10T06:03:43.999Z,3.37
2019-06-10T06:06:12.514Z,4.47
2019-06-10T06:08:42.938Z,3.92
2019-06-10T06:11:12.579Z,4.10
2019-06-10T06:13:43.264Z,4.03
2019-06-10T06:16:12.679Z,4.10
2019-06-10T06:18:42.293Z,3.85
2019-06-10T06:21:22.722Z,3.80
2019-06-10T06:23:43.403Z,3.72
2019-06-10T06:26:16.226Z,3.45
2019-06-10T06:28:42.998Z,4.67
2019-06-10T06:31:14.812Z,3.92
2019-06-10T06:33:43.596Z,3.75
2019-06-10T06:36:13.046Z,3.12
2019-06-10T06:38:43.856Z,3.50
2019-06-10T06:41:13.691Z,4.33
2019-06-10T06:43:45.019Z,3.50
2019-06-10T06:46:12.840Z,4.20
2019-06-10T06:48:43.915Z,4.50
2019-06-10T06:51:13.047Z,4.47
2019-06-10T06:53:48.326Z,4.22
2019-06-10T06:56:12.587Z,3.85
2019-06-10T06:58:43.345Z,4.00
2019-06-10T07:01:14.345Z,3.70
2019-06-10T07:03:45.089Z,4.15
2019-06-10T07:06:13.831Z,4.42
2019-06-10T07:08:57.772Z,3.77
2019-06-10T07:11:17.492Z,4.37
2019-06-10T07:13:46.176Z,3.85
2019-06-10T07:16:14.661Z,4.42
2019-06-10T07:18:49.594Z,4.78
2019-06-10T07:21:13.399Z,4.50
2019-06-10T07:23:45.563Z,4.05
2019-06-10T07:26:12.719Z,3.40
2019-06-10T07:28:45.702Z,4.17
2019-06-10T07:31:20.912Z,4.33
2019-06-10T07:33:46.802Z,4.47
2019-06-10T07:36:13.121Z,4.42
2019-06-10T07:38:47.002Z,4.03
2019-06-10T07:41:13.255Z,3.70
2019-06-10T07:43:47.523Z,4.10
2019-06-10T07:46:13.358Z,3.62
2019-06-10T07:48:46.224Z,3.35
2019-06-10T07:51:13.523Z,3.75
2019-06-10T07:53:46.100Z,3.50
2019-06-10T07:56:12.879Z,3.83
2019-06-10T07:58:46.993Z,4.70
2019-06-10T08:01:13.174Z,3.90
2019-06-10T08:03:45.994Z,5.30
2019-06-10T08:06:12.617Z,4.47
2019-06-10T08:08:43.946Z,4.78
2019-06-10T08:11:13.662Z,4.10
2019-06-10T08:13:45.615Z,5.22
2019-06-10T08:16:13.042Z,4.28
2019-06-10T08:19:12.253Z,5.30
2019-06-10T08:21:12.281Z,3.65
2019-06-10T08:23:44.654Z,4.25
2019-06-10T08:26:12.663Z,3.77
2019-06-10T08:28:42.437Z,5.67
2019-06-10T08:31:12.561Z,5.00
2019-06-10T08:33:44.322Z,3.67
2019-06-10T08:36:13.303Z,5.12
2019-06-10T08:38:45.062Z,5.70
2019-06-10T08:41:12.259Z,5.17
2019-06-10T08:43:43.772Z,4.78
2019-06-10T08:46:13.287Z,5.78
2019-06-10T08:48:45.294Z,5.03
2019-06-10T08:51:13.574Z,6.28
2019-06-10T08:53:44.996Z,5.37
2019-06-10T08:56:14.512Z,6.37
2019-06-10T08:58:46.300Z,6.40
2019-06-10T09:01:13.490Z,6.55
2019-06-10T09:03:45.300Z,5.30
2019-06-10T09:06:13.267Z,6.03
2019-06-10T09:08:45.644Z,4.70
2019-06-10T09:11:12.919Z,5.97
2019-06-10T09:13:45.451Z,5.80
2019-06-10T09:16:19.063Z,5.50
2019-06-10T09:18:47.699Z,4.87
2019-06-10T09:21:13.841Z,6.53
2019-06-10T09:23:50.378Z,6.25
2019-06-10T09:26:14.038Z,6.40
2019-06-10T09:28:47.173Z,5.75
2019-06-10T09:31:14.091Z,5.17
2019-06-10T09:33:49.893Z,5.30
2019-06-10T09:36:12.955Z,5.28
2019-06-10T09:38:45.399Z,5.90
2019-06-10T09:41:14.109Z,6.67
2019-06-10T09:43:46.884Z,6.15
2019-06-10T09:46:14.567Z,6.10
2019-06-10T09:48:46.951Z,4.45
2019-06-10T09:51:13.601Z,6.00
2019-06-10T09:53:50.123Z,5.53
2019-06-10T09:56:12.607Z,5.90
2019-06-10T09:58:44.710Z,5.90
2019-06-10T10:01:13.355Z,5.78
2019-06-10T10:03:45.415Z,6.58
2019-06-10T10:06:15.796Z,6.12
2019-06-10T10:08:46.062Z,6.33
2019-06-10T10:11:13.127Z,6.03
2019-06-10T10:13:44.129Z,5.92
2019-06-10T10:16:13.170Z,6.47
2019-06-10T10:18:45.832Z,6.17
2019-06-10T10:21:13.138Z,6.45
2019-06-10T10:23:51.282Z,6.35
2019-06-10T10:26:13.130Z,5.92
2019-06-10T10:28:42.827Z,4.30
2019-06-10T10:31:13.124Z,6.50
2019-06-10T10:33:42.640Z,5.97
2019-06-10T10:36:13.231Z,6.53
2019-06-10T10:38:42.600Z,5.83
2019-06-10T10:41:13.252Z,5.28
2019-06-10T10:43:43.695Z,5.62
2019-06-10T10:46:13.957Z,5.62
2019-06-10T10:48:42.996Z,6.17
2019-06-10T10:51:13.094Z,5.65
2019-06-10T10:53:46.781Z,5.72
2019-06-10T10:56:12.944Z,4.85
2019-06-10T10:58:43.598Z,5.00
2019-06-10T11:01:14.986Z,4.85
2019-06-10T11:03:44.059Z,4.67
2019-06-10T11:06:13.078Z,5.12
2019-06-10T11:08:43.093Z,4.75
2019-06-10T11:11:13.789Z,4.05
2019-06-10T11:13:43.379Z,4.92
2019-06-10T11:16:11.931Z,4.62
2019-06-10T11:18:42.262Z,4.62
2019-06-10T11:21:13.026Z,4.20
2019-06-10T11:23:43.219Z,5.12
2019-06-10T11:26:12.518Z,4.47
2019-06-10T11:28:42.862Z,4.10
2019-06-10T11:31:13.928Z,4.95
2019-06-10T11:33:43.578Z,4.35
2019-06-10T11:36:13.492Z,4.62
2019-06-10T11:38:41.725Z,4.08
2019-06-10T11:41:13.282Z,4.60
2019-06-10T11:43:42.654Z,4.42
2019-06-10T11:46:12.817Z,4.58
2019-06-10T11:48:43.175Z,4.55
2019-06-10T11:51:13.059Z,4.45
2019-06-10T11:53:43.885Z,4.12
2019-06-10T11:56:13.088Z,4.12
2019-06-10T11:58:42.527Z,3.70
2019-06-10T12:01:13.498Z,3.40
2019-06-10T12:03:43.215Z,5.05
2019-06-10T12:06:13.527Z,5.47
2019-06-10T12:08:43.407Z,5.85
2019-06-10T12:11:12.851Z,4.25
2019-06-10T12:13:42.730Z,4.50
2019-06-10T12:17:05.611Z,5.15
2019-06-10T12:18:42.641Z,4.10
2019-06-10T12:21:13.089Z,3.58
2019-06-10T12:23:43.489Z,3.65
2019-06-10T12:26:11.576Z,3.77
2019-06-10T12:28:40.009Z,3.02
2019-06-10T12:31:08.424Z,3.37
2019-06-10T12:33:36.859Z,3.80
2019-06-10T12:36:07.062Z,3.40
2019-06-10T12:38:35.947Z,3.50
2019-06-10T12:41:09.540Z,4.05
2019-06-10T12:43:35.066Z,2.98
2019-06-10T12:46:03.712Z,2.72
2019-06-10T12:48:34.156Z,3.40
2019-06-10T12:51:07.949Z,3.47
2019-06-10T12:53:32.737Z,3.15
2019-06-10T12:56:07.378Z,2.70
2019-06-10T12:58:33.475Z,2.98
2019-06-10T13:01:04.488Z,2.77
2019-06-10T13:03:32.956Z,2.60
2019-06-10T13:06:07.241Z,2.50
2019-06-10T13:08:36.012Z,3.12
2019-06-10T13:11:04.564Z,2.62
2019-06-10T13:13:33.045Z,2.60
2019-06-10T13:16:06.659Z,2.33
2019-06-10T13:18:31.720Z,2.33
2019-06-10T13:21:04.314Z,2.27
2019-06-10T13:23:32.649Z,2.00
2019-06-10T13:26:04.301Z,2.70
2019-06-10T13:28:32.470Z,2.47
2019-06-10T13:31:03.806Z,2.83
2019-06-10T13:33:34.029Z,2.50
2019-06-10T13:36:06.361Z,2.40
2019-06-10T13:38:33.315Z,2.12
2019-06-10T13:41:02.857Z,2.22
2019-06-10T13:43:33.819Z,1.98
2019-06-10T13:46:03.113Z,2.08
2019-06-10T13:48:32.273Z,2.55
2019-06-10T13:51:03.861Z,2.77
2019-06-10T13:53:30.933Z,2.45
2019-06-10T13:56:24.726Z,2.95
2019-06-10T13:58:29.506Z,3.17
2019-06-10T14:00:57.961Z,2.30
2019-06-10T14:03:26.374Z,2.47
2019-06-10T14:05:59.245Z,2.90
2019-06-10T14:08:24.968Z,2.45
2019-06-10T14:10:54.227Z,2.67
2019-06-10T14:13:23.845Z,2.95
2019-06-10T14:15:53.453Z,3.30
2019-06-10T14:18:23.298Z,2.50
2019-06-10T14:20:53.069Z,3.27
2019-06-10T14:23:22.241Z,3.17
2019-06-10T14:25:52.605Z,5.58
2019-06-10T14:28:38.500Z,4.58
2019-06-10T14:30:53.755Z,5.33
2019-06-10T14:33:23.372Z,5.47
2019-06-10T14:35:53.451Z,7.53
2019-06-10T14:38:22.209Z,8.85
2019-06-10T14:40:52.544Z,9.73
2019-06-10T14:43:23.401Z,9.83
2019-06-10T14:45:53.483Z,9.40
2019-06-10T14:48:23.258Z,8.18
2019-06-10T14:50:51.876Z,5.25
2019-06-10T14:53:23.039Z,6.58
2019-06-10T14:55:53.370Z,6.37
2019-06-10T14:58:23.141Z,4.53
2019-06-10T15:00:54.342Z,2.62
2019-06-10T15:03:21.141Z,5.67
2019-06-10T15:05:52.661Z,16.40
2019-06-10T15:08:23.194Z,66.35
2019-06-10T15:10:53.025Z,12.55
2019-06-10T15:13:23.430Z,8.85
2019-06-10T15:15:54.135Z,6.70
2019-06-10T15:18:23.791Z,3.37
2019-06-10T15:20:54.726Z,4.35
2019-06-10T15:23:23.459Z,6.45
2019-06-10T15:25:56.010Z,6.90
2019-06-10T15:28:23.501Z,5.42
2019-06-10T15:30:52.735Z,5.05
2019-06-10T15:33:23.736Z,7.92
2019-06-10T15:35:53.390Z,7.30
2019-06-10T15:38:23.204Z,6.67
2019-06-10T15:40:53.123Z,6.35
2019-06-10T15:43:34.230Z,6.72
2019-06-10T15:46:03.376Z,7.22
2019-06-10T15:48:32.079Z,8.93
2019-06-10T15:51:02.814Z,7.60
2019-06-10T15:53:32.792Z,11.65
2019-06-10T15:56:27.083Z,12.55
2019-06-10T15:58:32.093Z,13.25
2019-06-10T16:01:02.874Z,12.18
2019-06-10T16:03:32.922Z,9.30
2019-06-10T16:06:02.922Z,9.60
2019-06-10T16:08:32.492Z,12.07
2019-06-10T16:11:03.059Z,12.05
2019-06-10T16:13:32.242Z,12.73
2019-06-10T16:16:03.382Z,11.55
2019-06-10T16:18:32.978Z,39.63
2019-06-10T16:21:04.444Z,34.65
2019-06-10T16:23:34.047Z,24.35
2019-06-10T16:26:02.703Z,16.55
2019-06-10T16:28:32.837Z,10.32
2019-06-10T16:31:02.879Z,11.25
2019-06-10T16:33:33.477Z,10.03
2019-06-10T16:36:03.191Z,9.40
2019-06-10T16:38:32.803Z,10.05
2019-06-10T16:41:03.600Z,15.13
2019-06-10T16:43:33.464Z,14.47
2019-06-10T16:46:03.329Z,8.73
2019-06-10T16:48:33.540Z,11.15
2019-06-10T16:51:03.269Z,9.25
2019-06-10T16:53:35.350Z,10.70
2019-06-10T16:56:08.269Z,9.88
2019-06-10T17:01:07.462Z,16.25
2019-06-10T17:03:35.906Z,14.03
2019-06-10T17:06:04.930Z,15.50
2019-06-10T17:08:33.758Z,21.57
2019-06-10T17:11:03.398Z,17.00
2019-06-10T17:13:32.115Z,16.48
2019-06-10T17:16:03.199Z,13.65
2019-06-10T17:18:33.354Z,15.00
2019-06-10T17:21:03.531Z,21.42
2019-06-10T17:23:36.035Z,21.45
2019-06-10T17:26:01.384Z,34.92
2019-06-10T17:28:35.820Z,29.15
2019-06-10T17:31:00.215Z,27.05
2019-06-10T17:33:30.423Z,20.82
2019-06-10T17:35:58.869Z,63.02
2019-06-10T17:38:27.307Z,32.75
2019-06-10T17:40:55.765Z,22.77
2019-06-10T17:43:25.172Z,21.35
2019-06-10T17:45:53.756Z,20.20
2019-06-10T17:48:29.164Z,22.32
2019-06-10T17:50:52.763Z,30.12
2019-06-10T17:53:24.328Z,32.60
2019-06-10T17:55:52.708Z,25.77
2019-06-10T17:58:33.424Z,27.42
2019-06-10T18:00:53.024Z,28.38
2019-06-10T18:03:23.216Z,26.65
2019-06-10T18:05:53.312Z,57.73
2019-06-10T18:08:23.491Z,25.48
2019-06-10T18:10:53.592Z,38.78
2019-06-10T18:13:24.691Z,36.83
2019-06-10T18:15:53.719Z,24.00
2019-06-10T18:18:22.144Z,21.05
2019-06-10T18:20:53.556Z,22.40
2019-06-10T18:23:23.042Z,29.10
2019-06-10T18:25:52.730Z,32.38
2019-06-10T18:28:22.633Z,26.45
2019-06-10T18:30:53.213Z,24.23
2019-06-10T18:33:23.096Z,17.98
2019-06-10T18:35:53.264Z,17.75
2019-06-10T18:38:23.409Z,22.25
2019-06-10T18:40:53.629Z,26.05
2019-06-10T18:43:22.892Z,24.60
2019-06-10T18:45:53.357Z,26.45
2019-06-10T18:48:23.215Z,22.73
2019-06-10T18:50:53.321Z,21.23
2019-06-10T18:53:23.420Z,20.48
2019-06-10T18:55:54.515Z,22.40
2019-06-10T18:58:22.487Z,19.00
2019-06-10T19:01:03.652Z,18.23
2019-06-10T19:03:24.321Z,18.23
2019-06-10T19:05:53.202Z,21.37
2019-06-10T19:08:22.373Z,20.80
2019-06-10T19:10:53.316Z,16.00
2019-06-10T19:13:22.552Z,15.80
2019-06-10T19:15:53.141Z,15.88
2019-06-10T19:18:23.357Z,8.88
2019-06-10T19:20:53.091Z,6.47
2019-06-10T19:23:22.707Z,6.95
2019-06-10T19:25:53.008Z,7.17
2019-06-10T19:28:22.779Z,5.08
2019-06-10T19:30:53.343Z,6.33
2019-06-10T19:33:23.674Z,5.28
2019-06-10T19:35:55.196Z,5.47
2019-06-10T19:38:23.621Z,5.62
2019-06-10T19:40:52.481Z,6.12
2019-06-10T19:43:21.026Z,5.25
2019-06-10T19:45:49.462Z,6.40
2019-06-10T19:48:17.918Z,5.25
2019-06-10T19:50:50.116Z,4.70
2019-06-10T19:53:16.822Z,4.53
2019-06-10T19:55:46.831Z,5.00
2019-06-10T19:58:16.861Z,4.60
2019-06-10T20:00:51.157Z,4.37
2019-06-10T20:03:18.789Z,4.33
2019-06-10T20:05:47.550Z,5.35
2019-06-10T20:08:16.012Z,6.20
2019-06-10T20:10:46.103Z,5.50
2019-06-10T20:13:14.543Z,6.40
2019-06-10T20:15:44.982Z,4.85
2019-06-10T20:18:13.150Z,4.28
2019-06-10T20:20:45.610Z,4.42
2019-06-10T20:23:11.818Z,5.17
2019-06-10T20:25:42.898Z,6.28
2019-06-10T20:28:10.593Z,4.50
2019-06-10T20:30:39.146Z,4.55
2019-06-10T20:33:07.590Z,4.97
2019-06-10T20:35:37.406Z,5.25
2019-06-10T20:38:06.038Z,6.62
2019-06-10T20:40:35.492Z,6.35
2019-06-10T20:43:04.389Z,6.47
2019-06-10T20:45:33.357Z,6.75
2019-06-10T20:48:02.765Z,7.70
2019-06-10T20:50:32.774Z,8.63
2019-06-10T20:53:14.229Z,7.85
2019-06-10T20:55:41.407Z,8.55
2019-06-10T20:58:07.365Z,8.15
2019-06-10T21:00:41.976Z,8.50
2019-06-10T21:03:08.698Z,9.03
2019-06-10T21:05:37.151Z,8.28
2019-06-10T21:08:06.170Z,8.33
2019-06-10T21:10:39.868Z,8.58
2019-06-10T21:13:08.403Z,8.75
2019-06-10T21:15:37.410Z,8.83
2019-06-10T21:18:06.520Z,8.75
2019-06-10T21:20:35.021Z,9.75
2019-06-10T21:23:03.635Z,9.88
2019-06-10T21:25:32.667Z,10.32
2019-06-10T21:28:03.313Z,10.00
2019-06-10T21:30:38.452Z,10.05
2019-06-10T21:33:03.663Z,9.63
2019-06-10T21:35:33.663Z,9.55
2019-06-10T21:38:02.122Z,10.25
2019-06-10T21:40:32.947Z,9.88
2019-06-10T21:43:02.972Z,10.18
2019-06-10T21:45:32.626Z,11.43
2019-06-10T21:48:02.223Z,10.60
2019-06-10T21:50:33.333Z,10.78
2019-06-10T21:53:03.079Z,10.38
2019-06-10T21:55:33.050Z,9.78
2019-06-10T21:58:03.853Z,11.08
2019-06-10T22:00:51.635Z,11.88
2019-06-10T22:03:04.988Z,10.38
2019-06-10T22:05:33.472Z,10.03
2019-06-10T22:08:03.212Z,10.48
2019-06-10T22:10:33.600Z,8.63
2019-06-10T22:13:03.171Z,8.90
2019-06-10T22:15:33.412Z,9.08
2019-06-10T22:18:02.298Z,9.33
2019-06-10T22:20:32.407Z,8.50
2019-06-10T22:23:02.634Z,8.40
2019-06-10T22:25:32.836Z,8.30
2019-06-10T22:28:02.792Z,8.08
2019-06-10T22:30:32.120Z,7.45
2019-06-10T22:33:03.217Z,8.05
2019-06-10T22:35:31.183Z,7.47
2019-06-10T22:37:59.613Z,8.13
2019-06-10T22:40:28.093Z,7.55
2019-06-10T22:42:56.760Z,8.08
2019-06-10T22:45:25.425Z,7.28
2019-06-10T22:47:55.318Z,7.35
2019-06-10T22:50:24.262Z,7.97
2019-06-10T22:52:54.573Z,8.28
2019-06-10T22:55:22.847Z,7.28
2019-06-10T22:57:54.673Z,8.08
2019-06-10T23:00:22.289Z,6.95
2019-06-10T23:02:53.337Z,7.15
2019-06-10T23:05:23.289Z,7.72
2019-06-10T23:07:53.297Z,7.00
2019-06-10T23:10:22.897Z,8.00
2019-06-10T23:12:54.754Z,7.40
2019-06-10T23:15:23.456Z,7.55
2019-06-10T23:17:55.287Z,7.35
2019-06-10T23:20:23.138Z,7.50
2019-06-10T23:22:55.261Z,7.20
2019-06-10T23:25:22.212Z,6.70
2019-06-10T23:27:54.752Z,6.90
2019-06-10T23:30:23.678Z,7.78
2019-06-10T23:32:55.715Z,7.75
2019-06-10T23:35:23.233Z,9.33
2019-06-10T23:37:55.024Z,10.50
2019-06-10T23:40:23.405Z,8.20
2019-06-10T23:42:53.179Z,8.00
2019-06-10T23:45:22.361Z,7.20
2019-06-10T23:47:52.936Z,7.15
2019-06-10T23:50:22.551Z,7.62
2019-06-10T23:52:54.211Z,7.37
2019-06-10T23:55:22.770Z,7.25
2019-06-10T23:57:52.965Z,8.10
